Time;durP1;ratioP1;P1;durP2;ratioP2;P2;SDS_P1;SDS_P2;PMS_P1;PMS_P2;Temp;Humidity;BMP_temperature;BMP_pressure;BME280_temperature;BME280_humidity;BME280_pressure;Samples;Min_cycle;Max_cycle;Signal;HPM_P1;HPM_P2
2021/12/08 00:00:22;;;;;;;;;;;;;;;-1.70;93.77;99891.63;4502922;31;20345;-70
2021/12/08 00:02:50;;;;;;;;;;;;;;;-1.58;92.77;99899.75;4502814;31;20009;-70
2021/12/08 00:05:18;;;;;;;;;;;;;;;-1.70;93.12;99900.28;4502916;31;19993;-70
2021/12/08 00:07:46;;;;;;;;;;;;;;;-1.67;93.03;99898.59;4502980;31;19979;-70
2021/12/08 00:10:28;;;;;;;;;;;;;;;-1.78;93.08;99898.28;4502707;31;19983;-70
2021/12/08 00:13:04;;;;;;;;;;;;;;;-2.01;94.29;99895.88;4503045;31;20372;-70
2021/12/08 00:15:39;;;;;;;;;;;;;;;-2.12;94.79;99886.94;4502894;31;20274;-70
2021/12/08 00:18:07;;;;;;;;;;;;;;;-2.19;95.37;99890.12;4503064;31;19983;-70
2021/12/08 00:20:36;;;;;;;;;;;;;;;-2.06;94.89;99904.31;4502838;31;20002;-70
2021/12/08 00:23:06;;;;;;;;;;;;;;;-2.08;95.14;99893.94;4502622;31;19987;-70
2021/12/08 00:25:35;;;;;;;;;;;;;;;-2.10;94.87;99887.84;4503089;31;19990;-70
2021/12/08 00:28:04;;;;;;;;;;;;;;;-2.07;94.49;99895.69;4502937;31;20024;-70
2021/12/08 00:30:32;;;;;;;;;;;;;;;-2.09;94.63;99905.06;4488234;31;19995;-70
2021/12/08 00:32:59;;;;;;;;;;;;;;;-2.23;94.87;99906.34;4503197;31;19987;-70
2021/12/08 00:35:28;;;;;;;;;;;;;;;-2.11;94.82;99911.91;4488071;31;20014;-70
2021/12/08 00:37:56;;;;;;;;;;;;;;;-2.18;94.67;99912.56;4502806;31;19993;-70
2021/12/08 00:40:25;;;;;;;;;;;;;;;-2.22;94.96;99918.44;4502863;31;20343;-70
2021/12/08 00:42:53;;;;;;;;;;;;;;;-2.31;95.08;99916.44;4502788;31;20006;-70
2021/12/08 00:45:21;;;;;;;;;;;;;;;-2.12;94.84;99915.34;4502704;31;20013;-70
2021/12/08 00:47:49;;;;;;;;;;;;;;;-1.90;93.39;99921.16;4502681;31;20336;-70
2021/12/08 00:50:17;;;;;;;;;;;;;;;-2.08;93.64;99924.06;4502646;31;20382;-70
2021/12/08 00:52:44;;;;;;;;;;;;;;;-2.19;93.84;99922.00;4502872;31;19991;-70
2021/12/08 00:55:13;;;;;;;;;;;;;;;-2.20;94.01;99921.94;4502624;31;20023;-70
2021/12/08 00:57:41;;;;;;;;;;;;;;;-2.26;94.54;99919.16;4502719;31;20380;-70
2021/12/08 01:00:11;;;;;;;;;;;;;;;-2.25;94.42;99921.81;4502503;31;20018;-70
2021/12/08 01:02:39;;;;;;;;;;;;;;;-2.33;95.22;99919.78;4502560;31;19987;-70
2021/12/08 01:05:07;;;;;;;;;;;;;;;-2.25;94.42;99926.09;4502673;31;19979;-70
2021/12/08 01:07:35;;;;;;;;;;;;;;;-2.26;94.64;99927.81;4502761;31;20019;-70
2021/12/08 01:10:04;;;;;;;;;;;;;;;-2.16;93.67;99926.38;4502530;31;19999;-70
2021/12/08 01:12:51;;;;;;;;;;;;;;;-2.25;93.82;99921.81;4502745;31;19991;-70
2021/12/08 01:15:19;;;;;;;;;;;;;;;-2.15;93.59;99916.94;4502423;31;20530;-70
2021/12/08 01:17:46;;;;;;;;;;;;;;;-2.27;94.04;99918.28;4487700;31;19978;-70
2021/12/08 01:20:16;;;;;;;;;;;;;;;-2.28;94.40;99908.78;4502401;31;19986;-70
2021/12/08 01:22:43;;;;;;;;;;;;;;;-2.38;94.71;99914.50;4502533;31;20042;-70
2021/12/08 01:25:11;;;;;;;;;;;;;;;-2.41;94.79;99904.94;4502426;31;19989;-70
2021/12/08 01:27:39;;;;;;;;;;;;;;;-2.26;94.75;99907.16;4502753;31;19975;-70
2021/12/08 01:30:07;;;;;;;;;;;;;;;-2.27;94.54;99899.34;4502462;31;19983;-70
2021/12/08 01:32:35;;;;;;;;;;;;;;;-2.33;94.06;99892.31;4502410;31;20047;-70
2021/12/08 01:35:04;;;;;;;;;;;;;;;-2.27;94.14;99892.47;4501533;31;20003;-70
2021/12/08 01:37:32;;;;;;;;;;;;;;;-2.27;93.86;99894.19;4502276;31;19978;-70
2021/12/08 01:40:00;;;;;;;;;;;;;;;-2.28;93.76;99875.25;4502342;31;19998;-70
2021/12/08 01:42:34;;;;;;;;;;;;;;;-2.44;94.36;99879.06;4502161;31;20027;-70
2021/12/08 01:47:49;;;;;;;;;;;;;;;-2.47;94.52;99873.81;4502154;31;21002;-70
2021/12/08 01:50:16;;;;;;;;;;;;;;;-2.39;94.08;99870.59;4502117;31;19983;-70
2021/12/08 01:52:43;;;;;;;;;;;;;;;-2.43;93.84;99875.66;4502301;31;20031;-70
2021/12/08 01:55:11;;;;;;;;;;;;;;;-2.35;93.31;99873.31;4502090;31;20020;-70
2021/12/08 01:57:43;;;;;;;;;;;;;;;-2.36;92.92;99878.44;4502223;31;20018;-70
2021/12/08 02:00:13;;;;;;;;;;;;;;;-2.20;92.04;99870.31;4502212;31;20357;-70
2021/12/08 02:02:41;;;;;;;;;;;;;;;-2.33;92.56;99865.59;4502196;31;19991;-70
2021/12/08 02:05:08;;;;;;;;;;;;;;;-2.48;93.42;99873.75;4502085;31;19991;-70
2021/12/08 02:07:36;;;;;;;;;;;;;;;-2.37;93.67;99867.22;4502041;31;20042;-70
2021/12/08 02:10:05;;;;;;;;;;;;;;;-2.02;91.92;99865.72;4502010;31;20044;-70
2021/12/08 02:12:35;;;;;;;;;;;;;;;-2.29;92.32;99862.31;4501966;31;19991;-70
2021/12/08 02:15:04;;;;;;;;;;;;;;;-2.50;93.16;99858.22;4501954;31;20321;-70
2021/12/08 02:17:33;;;;;;;;;;;;;;;-2.79;94.25;99852.12;4502012;31;19975;-70
2021/12/08 02:20:02;;;;;;;;;;;;;;;-2.98;94.87;99844.59;4502020;31;19991;-70
2021/12/08 02:22:29;;;;;;;;;;;;;;;-3.03;95.32;99839.31;4501927;31;20018;-70
2021/12/08 02:24:57;;;;;;;;;;;;;;;-3.01;94.75;99844.50;4502200;31;19991;-70
2021/12/08 02:27:24;;;;;;;;;;;;;;;-2.85;94.08;99843.31;4501841;31;19989;-70
2021/12/08 02:30:01;;;;;;;;;;;;;;;-2.86;93.64;99842.44;4501916;31;19992;-70
2021/12/08 02:49:05;;;;;;;;;;;;;;;-2.63;91.19;99860.34;4501850;31;19991;-70
2021/12/08 02:51:36;;;;;;;;;;;;;;;-2.82;91.86;99858.91;4501816;31;19998;-70
2021/12/08 02:54:03;;;;;;;;;;;;;;;-2.86;92.09;99867.31;4501710;31;20394;-70
2021/12/08 02:56:31;;;;;;;;;;;;;;;-2.89;92.14;99876.72;4501696;31;20020;-70
2021/12/08 02:58:59;;;;;;;;;;;;;;;-2.67;91.26;99882.59;4501844;31;20022;-70
2021/12/08 03:01:26;;;;;;;;;;;;;;;-2.83;91.48;99886.34;4501560;31;20374;-70
2021/12/08 03:03:54;;;;;;;;;;;;;;;-2.69;90.71;99881.66;4501459;31;20432;-70
2021/12/08 03:06:22;;;;;;;;;;;;;;;-2.84;91.12;99878.56;4501472;31;19986;-70
2021/12/08 03:08:49;;;;;;;;;;;;;;;-2.97;91.78;99873.03;4501491;31;19986;-70
2021/12/08 03:11:16;;;;;;;;;;;;;;;-3.07;92.43;99880.34;4501344;31;20346;-70
2021/12/08 03:13:57;;;;;;;;;;;;;;;-3.01;91.92;99870.25;4501302;31;19990;-70
2021/12/08 03:16:24;;;;;;;;;;;;;;;-3.15;92.30;99875.81;4501278;31;20024;-70
2021/12/08 03:18:52;;;;;;;;;;;;;;;-2.91;91.17;99880.06;4501260;31;19975;-70
2021/12/08 03:21:26;;;;;;;;;;;;;;;-2.67;90.33;99875.72;4501179;31;19983;-70
2021/12/08 03:24:08;;;;;;;;;;;;;;;-2.78;90.38;99877.09;4501229;31;20046;-70
2021/12/08 03:26:44;;;;;;;;;;;;;;;-2.93;90.73;99869.72;4501392;31;20402;-70
2021/12/08 03:29:23;;;;;;;;;;;;;;;-3.06;91.28;99877.84;4501089;31;20318;-70
2021/12/08 03:31:53;;;;;;;;;;;;;;;-3.10;91.13;99883.72;4500955;31;20361;-70
2021/12/08 03:34:24;;;;;;;;;;;;;;;-3.18;91.37;99874.84;4501065;31;19995;-70
2021/12/08 03:36:52;;;;;;;;;;;;;;;-3.02;91.00;99873.69;4500896;31;19986;-70
2021/12/08 03:39:19;;;;;;;;;;;;;;;-2.86;90.37;99865.66;4500885;31;20031;-70
2021/12/08 03:41:47;;;;;;;;;;;;;;;-3.04;90.91;99860.75;4500852;31;20087;-70
2021/12/08 03:44:14;;;;;;;;;;;;;;;-3.12;91.14;99868.19;4500913;31;20414;-70
2021/12/08 03:46:43;;;;;;;;;;;;;;;-3.23;91.47;99872.09;4501092;31;20367;-70
2021/12/08 03:49:12;;;;;;;;;;;;;;;-3.19;91.25;99878.25;4500778;31;20097;-70
2021/12/08 03:51:40;;;;;;;;;;;;;;;-3.03;90.24;99866.78;4500731;31;20035;-70
2021/12/08 03:54:08;;;;;;;;;;;;;;;-3.18;90.82;99861.94;4500909;31;20321;-70
2021/12/08 03:56:36;;;;;;;;;;;;;;;-3.35;91.40;99860.50;4500483;31;20082;-70
2021/12/08 03:59:04;;;;;;;;;;;;;;;-3.38;91.94;99856.13;4501622;31;19983;-70
2021/12/08 04:01:32;;;;;;;;;;;;;;;-3.42;92.50;99860.28;4502861;31;20038;-70
2021/12/08 04:04:05;;;;;;;;;;;;;;;-3.39;92.48;99865.56;4503097;31;19995;-70
2021/12/08 04:06:40;;;;;;;;;;;;;;;-3.43;93.27;99861.13;4502913;31;20025;-70
2021/12/08 04:09:13;;;;;;;;;;;;;;;-3.29;92.36;99860.72;4503032;31;19971;-70
2021/12/08 04:11:40;;;;;;;;;;;;;;;-3.18;91.30;99867.09;4502958;31;20048;-70
2021/12/08 04:14:10;;;;;;;;;;;;;;;-3.08;91.69;99876.03;4503052;31;20028;-70
2021/12/08 04:16:40;;;;;;;;;;;;;;;-3.30;92.25;99877.88;4502832;31;20355;-70
2021/12/08 04:19:08;;;;;;;;;;;;;;;-3.50;93.52;99877.16;4502931;31;19997;-70
2021/12/08 04:21:36;;;;;;;;;;;;;;;-3.48;92.85;99866.91;4502673;31;19995;-70
2021/12/08 04:24:04;;;;;;;;;;;;;;;-3.51;92.36;99875.41;4502859;31;20009;-70
2021/12/08 04:26:33;;;;;;;;;;;;;;;-3.48;92.08;99884.94;4503077;31;20420;-70
2021/12/08 04:29:03;;;;;;;;;;;;;;;-3.57;92.40;99885.47;4502778;31;20086;-70
2021/12/08 04:31:32;;;;;;;;;;;;;;;-3.82;93.45;99869.94;4502799;31;20460;-70
2021/12/08 04:34:03;;;;;;;;;;;;;;;-3.94;94.24;99862.66;4502989;31;20003;-70
2021/12/08 04:36:41;;;;;;;;;;;;;;;-3.90;93.54;99859.38;4502612;31;19967;-70
2021/12/08 04:39:14;;;;;;;;;;;;;;;-3.87;92.89;99869.78;4502821;31;19991;-70
2021/12/08 04:41:47;;;;;;;;;;;;;;;-3.73;92.10;99867.72;4502735;31;19991;-70
2021/12/08 04:50:35;;;;;;;;;;;;;;;-3.67;91.11;99879.13;4502619;31;20345;-70
2021/12/08 04:52:30;;;;;;;;;;;;;;;-3.53;90.23;99877.06;4492030;31;20352;-70
2021/12/08 05:06:38;;;;;;;;;;;;;;;-3.54;91.00;99877.84;4486987;31;19988;-70
2021/12/08 05:08:43;;;;;;;;;;;;;;;-3.65;91.62;99877.47;4480390;31;20325;-70
2021/12/08 05:11:17;;;;;;;;;;;;;;;-3.56;91.13;99874.38;4486637;31;20059;-70
2021/12/08 05:13:47;;;;;;;;;;;;;;;-3.66;91.08;99872.28;4486529;31;20451;-70
2021/12/08 05:16:15;;;;;;;;;;;;;;;-3.85;91.67;99861.31;4486452;31;20343;-70
2021/12/08 05:18:44;;;;;;;;;;;;;;;-3.65;91.13;99879.16;4486275;31;19990;-70
2021/12/08 05:21:14;;;;;;;;;;;;;;;-3.46;90.47;99889.34;4484264;31;20000;-70
2021/12/08 05:23:43;;;;;;;;;;;;;;;-3.66;91.09;99883.44;4485674;31;20040;-70
2021/12/08 05:26:14;;;;;;;;;;;;;;;-3.87;91.68;99874.94;4486676;31;20315;-70
2021/12/08 05:28:42;;;;;;;;;;;;;;;-3.87;92.02;99873.22;4486172;31;20326;-70
2021/12/08 05:31:11;;;;;;;;;;;;;;;-3.68;90.82;99879.94;4486549;31;19987;-70
2021/12/08 05:33:40;;;;;;;;;;;;;;;-3.78;90.94;99875.28;4486134;31;20346;-70
2021/12/08 05:36:09;;;;;;;;;;;;;;;-3.90;91.58;99870.53;4486263;31;20044;-70
2021/12/08 05:38:37;;;;;;;;;;;;;;;-3.75;90.60;99865.06;4486234;31;20001;-70
2021/12/08 05:41:13;;;;;;;;;;;;;;;-3.81;90.70;99861.44;4486269;31;19975;-70
2021/12/08 05:43:42;;;;;;;;;;;;;;;-3.83;90.74;99860.47;4486002;31;19984;-70
2021/12/08 05:46:10;;;;;;;;;;;;;;;-3.98;91.14;99858.22;4486266;31;19995;-70
2021/12/08 05:48:38;;;;;;;;;;;;;;;-3.95;91.14;99859.22;4486076;31;19998;-71
2021/12/08 05:51:11;;;;;;;;;;;;;;;-3.96;91.22;99867.72;4485991;31;19979;-70
2021/12/08 05:53:41;;;;;;;;;;;;;;;-3.77;90.37;99877.03;4486061;31;20051;-70
2021/12/08 05:56:09;;;;;;;;;;;;;;;-3.67;89.28;99878.25;4499454;31;20390;-71
2021/12/08 05:58:37;;;;;;;;;;;;;;;-3.77;89.60;99876.16;4501957;31;19986;-71
2021/12/08 06:01:25;;;;;;;;;;;;;;;-3.87;89.75;99877.50;4496323;31;167706;-71
2021/12/08 06:03:53;;;;;;;;;;;;;;;-4.01;90.52;99879.56;4491073;31;20338;-71
2021/12/08 06:06:21;;;;;;;;;;;;;;;-3.87;90.17;99880.09;4501784;31;20409;-71
2021/12/08 06:08:51;;;;;;;;;;;;;;;-3.73;89.33;99881.47;4501836;31;19988;-71
2021/12/08 06:11:22;;;;;;;;;;;;;;;-3.53;88.79;99869.34;4500393;31;20120;-71
2021/12/08 06:13:50;;;;;;;;;;;;;;;-3.59;88.61;99887.13;4501848;31;20002;-71
2021/12/08 06:16:20;;;;;;;;;;;;;;;-3.86;89.72;99893.00;4501628;31;19988;-71
2021/12/08 06:18:51;;;;;;;;;;;;;;;-3.86;89.98;99897.28;4501663;31;19971;-71
2021/12/08 06:21:22;;;;;;;;;;;;;;;-3.99;90.58;99890.81;4501004;31;19979;-71
2021/12/08 06:23:50;;;;;;;;;;;;;;;-4.04;90.89;99891.44;4501689;31;20349;-70
2021/12/08 06:26:19;;;;;;;;;;;;;;;-4.07;90.73;99881.88;4501773;31;20015;-71
2021/12/08 06:28:47;;;;;;;;;;;;;;;-4.15;91.14;99886.75;4501378;31;19979;-71
2021/12/08 06:31:15;;;;;;;;;;;;;;;-4.12;91.17;99883.41;4501826;31;19975;-71
2021/12/08 06:33:43;;;;;;;;;;;;;;;-4.03;90.93;99878.59;4501598;31;20031;-71
2021/12/08 06:36:13;;;;;;;;;;;;;;;-3.75;90.18;99884.81;4501385;31;20576;-70
2021/12/08 06:38:41;;;;;;;;;;;;;;;-4.06;91.44;99888.81;4501688;31;20389;-70
2021/12/08 06:41:17;;;;;;;;;;;;;;;-4.17;92.33;99892.63;4501286;31;19987;-70
2021/12/08 06:43:47;;;;;;;;;;;;;;;-4.06;91.78;99898.19;4501472;31;19984;-71
2021/12/08 06:46:16;;;;;;;;;;;;;;;-4.00;90.92;99890.72;4495556;31;20377;-71
2021/12/08 06:48:46;;;;;;;;;;;;;;;-3.96;91.04;99893.47;4490126;31;20416;-71
2021/12/08 06:51:22;;;;;;;;;;;;;;;-3.75;90.10;99888.25;4485421;31;19979;-71
2021/12/08 06:53:52;;;;;;;;;;;;;;;-3.86;91.18;99892.13;4485362;31;20826;-70
2021/12/08 06:56:34;;;;;;;;;;;;;;;-3.73;90.66;99884.03;4485209;31;19997;-70
2021/12/08 06:59:04;;;;;;;;;;;;;;;-3.63;89.97;99887.84;4485413;31;19980;-70
2021/12/08 07:09:30;;;;;;;;;;;;;;;-3.29;88.72;99871.00;4485233;31;19984;-70
2021/12/08 07:11:59;;;;;;;;;;;;;;;-3.21;88.60;99874.75;4485125;31;19983;-70
2021/12/08 07:14:28;;;;;;;;;;;;;;;-3.11;88.24;99874.22;4485186;31;19991;-70
2021/12/08 07:16:57;;;;;;;;;;;;;;;-3.05;88.50;99878.72;4485102;31;19987;-69
2021/12/08 07:19:33;;;;;;;;;;;;;;;-2.94;87.86;99875.69;4485019;31;19994;-67
2021/12/08 07:22:05;;;;;;;;;;;;;;;-2.87;87.60;99875.88;4485559;31;20002;-69
2021/12/08 07:24:34;;;;;;;;;;;;;;;-2.85;87.91;99879.41;4485748;31;20059;-69
2021/12/08 07:27:07;;;;;;;;;;;;;;;-2.70;87.30;99877.34;4485268;31;19976;-69
2021/12/08 07:29:36;;;;;;;;;;;;;;;-2.62;87.40;99882.72;4484915;31;19990;-69
2021/12/08 07:32:06;;;;;;;;;;;;;;;-2.62;87.58;99883.59;4485022;31;19975;-69
2021/12/08 07:34:35;;;;;;;;;;;;;;;-2.37;86.42;99872.37;4486102;31;20312;-69
2021/12/08 07:37:07;;;;;;;;;;;;;;;-2.27;86.68;99877.00;4486885;31;20076;-69
2021/12/08 07:39:42;;;;;;;;;;;;;;;-2.42;87.84;99879.97;4487156;31;19984;-70
2021/12/08 07:42:16;;;;;;;;;;;;;;;-2.53;89.25;99878.75;4486924;31;20022;-70
2021/12/08 07:44:45;;;;;;;;;;;;;;;-2.51;90.13;99884.84;4486865;31;20006;-70
2021/12/08 07:47:15;;;;;;;;;;;;;;;-2.37;89.49;99890.44;4487047;31;21013;-69
2021/12/08 07:49:50;;;;;;;;;;;;;;;-2.23;88.74;99889.16;4487120;31;20394;-69
2021/12/08 07:52:23;;;;;;;;;;;;;;;-2.08;88.12;99893.94;4486917;31;20055;-70
2021/12/08 07:54:51;;;;;;;;;;;;;;;-1.83;87.47;99900.72;4486852;31;20010;-70
2021/12/08 07:57:28;;;;;;;;;;;;;;;-1.81;87.79;99898.19;4487253;31;20398;-69
2021/12/08 07:59:58;;;;;;;;;;;;;;;-1.69;87.75;99903.72;4486921;31;19990;-69
2021/12/08 08:02:26;;;;;;;;;;;;;;;-1.52;87.18;99902.50;4486601;31;20407;-70
2021/12/08 08:04:56;;;;;;;;;;;;;;;-1.37;86.56;99891.72;4486626;31;20050;-70
2021/12/08 08:07:24;;;;;;;;;;;;;;;-1.22;86.00;99888.69;4471954;31;20018;-70
2021/12/08 08:09:59;;;;;;;;;;;;;;;-1.13;85.81;99896.69;4487019;31;19972;-71
2021/12/08 08:12:29;;;;;;;;;;;;;;;-1.11;85.78;99899.31;4496909;31;19983;-69
2021/12/08 08:14:58;;;;;;;;;;;;;;;-1.01;85.75;99902.19;4493969;31;19983;-70
2021/12/08 08:17:33;;;;;;;;;;;;;;;-0.92;85.71;99898.94;4495280;31;19988;-70
2021/12/08 08:20:05;;;;;;;;;;;;;;;-0.88;86.70;99902.50;4488784;31;20454;-69
2021/12/08 08:22:32;;;;;;;;;;;;;;;-0.86;85.89;99903.44;4486716;31;20066;-70
2021/12/08 08:25:01;;;;;;;;;;;;;;;-1.04;87.14;99912.44;4486745;31;19984;-69
2021/12/08 08:27:28;;;;;;;;;;;;;;;-0.96;87.76;99912.66;4486651;31;19995;-70
2021/12/08 08:29:57;;;;;;;;;;;;;;;-1.03;87.70;99910.72;4486711;31;19980;-69
2021/12/08 08:32:29;;;;;;;;;;;;;;;-0.76;86.56;99901.13;4486900;31;19971;-70
2021/12/08 08:34:59;;;;;;;;;;;;;;;-0.63;87.53;99915.25;4486513;31;19998;-71
2021/12/08 08:37:26;;;;;;;;;;;;;;;-0.46;86.59;99907.88;4486860;31;19987;-71
2021/12/08 08:40:00;;;;;;;;;;;;;;;-0.38;86.00;99908.09;4486509;31;20286;-70
2021/12/08 08:42:30;;;;;;;;;;;;;;;-0.20;85.13;99912.84;4486475;31;19994;-71
2021/12/08 08:45:00;;;;;;;;;;;;;;;-0.25;85.28;99911.03;4486281;31;20001;-71
2021/12/08 08:47:30;;;;;;;;;;;;;;;-0.04;84.33;99913.22;4486504;31;20006;-71
2021/12/08 08:49:59;;;;;;;;;;;;;;;-0.05;84.69;99908.87;4486625;31;20015;-69
2021/12/08 08:52:26;;;;;;;;;;;;;;;-0.04;85.42;99905.44;4486643;31;19983;-69
2021/12/08 08:54:54;;;;;;;;;;;;;;;0.05;85.42;99906.50;4486169;31;19980;-69
2021/12/08 08:57:34;;;;;;;;;;;;;;;0.11;84.95;99910.13;4486426;31;19987;-70
2021/12/08 09:00:17;;;;;;;;;;;;;;;0.19;85.36;99907.69;4486437;31;19998;-69
2021/12/08 09:02:46;;;;;;;;;;;;;;;0.35;85.04;99904.56;4486235;31;19980;-68
2021/12/08 09:05:25;;;;;;;;;;;;;;;0.62;83.70;99900.81;4490976;31;20046;-71
2021/12/08 09:08:12;;;;;;;;;;;;;;;0.66;83.58;99898.31;4494363;31;20006;-70
2021/12/08 09:10:46;;;;;;;;;;;;;;;0.72;83.22;99882.03;4492741;31;19988;-69
2021/12/08 09:13:35;;;;;;;;;;;;;;;0.76;84.52;99882.97;4493325;31;19979;-69
2021/12/08 09:16:05;;;;;;;;;;;;;;;0.85;83.01;99886.59;4486607;31;20354;-69
2021/12/08 09:18:43;;;;;;;;;;;;;;;0.99;83.43;99885.97;4492383;31;20040;-70
2021/12/08 09:21:16;;;;;;;;;;;;;;;1.02;83.28;99880.84;4492580;31;19984;-70
2021/12/08 09:23:50;;;;;;;;;;;;;;;1.13;82.75;99879.31;4494650;31;20054;-70
2021/12/08 09:26:18;;;;;;;;;;;;;;;1.17;82.40;99892.41;4494610;31;19988;-70
2021/12/08 09:28:58;;;;;;;;;;;;;;;1.18;82.73;99893.25;4493060;31;20390;-70
2021/12/08 09:31:31;;;;;;;;;;;;;;;1.34;81.79;99887.50;4478328;31;20347;-69
2021/12/08 09:34:03;;;;;;;;;;;;;;;1.41;81.06;99884.16;4492926;31;19997;-70
2021/12/08 09:36:41;;;;;;;;;;;;;;;1.28;82.01;99884.78;4478723;31;19996;-70
2021/12/08 09:39:17;;;;;;;;;;;;;;;1.08;82.19;99878.37;4493217;31;19995;-69
2021/12/08 09:41:46;;;;;;;;;;;;;;;1.15;83.10;99875.91;4493007;31;19994;-69
2021/12/08 09:44:29;;;;;;;;;;;;;;;1.70;81.50;99869.88;4493429;31;20275;-70
2021/12/08 09:46:56;;;;;;;;;;;;;;;2.08;80.01;99876.50;4494456;31;19988;-71
2021/12/08 09:49:25;;;;;;;;;;;;;;;2.10;80.32;99873.97;4493707;31;20623;-70
2021/12/08 09:51:53;;;;;;;;;;;;;;;2.20;79.51;99867.16;4493955;31;20007;-71
2021/12/08 09:54:21;;;;;;;;;;;;;;;2.40;79.58;99868.28;4494376;31;20308;-70
2021/12/08 09:56:50;;;;;;;;;;;;;;;2.61;80.94;99858.16;4476877;31;20331;-70
2021/12/08 09:59:17;;;;;;;;;;;;;;;2.68;79.14;99861.69;4492919;31;19991;-70
2021/12/08 10:01:45;;;;;;;;;;;;;;;2.60;78.58;99861.59;4465967;31;19995;-70
2021/12/08 10:04:13;;;;;;;;;;;;;;;2.88;77.67;99854.97;4493466;31;20027;-70
2021/12/08 10:06:42;;;;;;;;;;;;;;;3.11;76.26;99846.56;4492455;31;20048;-70
2021/12/08 10:09:09;;;;;;;;;;;;;;;3.09;76.43;99843.91;4493886;31;20360;-70
2021/12/08 10:11:37;;;;;;;;;;;;;;;3.11;76.55;99843.94;4479799;31;19979;-69
2021/12/08 10:14:04;;;;;;;;;;;;;;;3.33;77.48;99840.66;4494786;31;20836;-69
2021/12/08 10:16:34;;;;;;;;;;;;;;;3.71;74.51;99837.50;4493220;31;19995;-69
2021/12/08 10:19:03;;;;;;;;;;;;;;;4.13;72.33;99836.00;4493662;31;20392;-69
2021/12/08 10:21:31;;;;;;;;;;;;;;;4.74;71.04;99838.88;4487726;31;19971;-69
2021/12/08 10:23:59;;;;;;;;;;;;;;;5.65;69.28;99833.72;4501849;31;20002;-69
2021/12/08 10:26:31;;;;;;;;;;;;;;;6.47;64.75;99824.88;4501734;31;20308;-69
2021/12/08 10:28:59;;;;;;;;;;;;;;;7.47;61.66;99825.09;4501885;31;19987;-69
2021/12/08 10:31:47;;;;;;;;;;;;;;;8.10;58.96;99817.50;4501890;31;20076;-70
2021/12/08 10:36:55;;;;;;;;;;;;;;;8.71;55.34;99809.78;4492499;31;20047;-70
2021/12/08 10:39:34;;;;;;;;;;;;;;;9.44;54.12;99811.34;4493023;31;20669;-70
2021/12/08 10:42:08;;;;;;;;;;;;;;;9.27;53.40;99794.97;4493070;31;20028;-70
2021/12/08 10:44:53;;;;;;;;;;;;;;;9.50;53.60;99792.78;4493166;31;20359;-70
2021/12/08 10:47:31;;;;;;;;;;;;;;;10.51;51.73;99788.28;4494693;31;19995;-70
2021/12/08 10:55:17;;;;;;;;;;;;;;;11.57;48.27;99787.59;4492623;31;20415;-70
2021/12/08 10:57:50;;;;;;;;;;;;;;;11.72;45.73;99774.00;4492371;31;19988;-70
2021/12/08 11:00:32;;;;;;;;;;;;;;;12.25;45.27;99771.69;4493319;31;19983;-69
2021/12/08 11:03:04;;;;;;;;;;;;;;;12.26;46.57;99769.91;4494078;31;20043;-70
2021/12/08 11:05:52;;;;;;;;;;;;;;;12.19;45.79;99761.28;4495563;31;19987;-70
2021/12/08 11:08:20;;;;;;;;;;;;;;;12.43;44.79;99765.88;4496833;31;19987;-69
2021/12/08 11:10:58;;;;;;;;;;;;;;;12.61;44.20;99758.31;4496650;31;20002;-69
2021/12/08 11:13:27;;;;;;;;;;;;;;;13.53;43.68;99763.31;4497956;31;20046;-69
2021/12/08 11:16:07;;;;;;;;;;;;;;;13.54;41.91;99763.28;4502574;31;20027;-69
2021/12/08 11:18:39;;;;;;;;;;;;;;;13.93;39.10;99756.66;4507075;31;19999;-70
2021/12/08 11:21:14;;;;;;;;;;;;;;;13.51;40.63;99750.16;4507081;31;19995;-70
2021/12/08 11:24:03;;;;;;;;;;;;;;;13.99;40.34;99748.47;4506838;31;19979;-71
2021/12/08 11:26:37;;;;;;;;;;;;;;;14.18;40.34;99752.22;4507049;31;20034;-71
2021/12/08 11:29:22;;;;;;;;;;;;;;;14.78;39.24;99752.62;4492990;31;20002;-70
2021/12/08 11:31:59;;;;;;;;;;;;;;;14.63;37.05;99743.50;4506766;31;19987;-71
2021/12/08 11:34:37;;;;;;;;;;;;;;;14.14;38.38;99744.44;4506013;31;20058;-70
2021/12/08 11:37:24;;;;;;;;;;;;;;;13.96;39.40;99748.63;4497596;31;20339;-70
2021/12/08 11:40:00;;;;;;;;;;;;;;;14.27;39.04;99737.75;4497691;31;20063;-70
2021/12/08 11:42:31;;;;;;;;;;;;;;;14.50;38.31;99742.22;4497259;31;19991;-70
2021/12/08 11:45:00;;;;;;;;;;;;;;;14.37;36.12;99738.25;4490160;31;20377;-70
2021/12/08 11:47:32;;;;;;;;;;;;;;;15.09;36.57;99735.47;4489654;31;20024;-70
2021/12/08 11:50:01;;;;;;;;;;;;;;;14.26;38.92;99728.94;4490474;31;19987;-70
2021/12/08 11:52:32;;;;;;;;;;;;;;;14.52;39.47;99730.66;4495316;31;20021;-70
2021/12/08 11:55:06;;;;;;;;;;;;;;;14.98;36.26;99735.91;4505338;31;20095;-70
2021/12/08 11:57:39;;;;;;;;;;;;;;;16.04;34.18;99732.28;4504091;31;20079;-70
2021/12/08 12:00:07;;;;;;;;;;;;;;;15.83;35.25;99738.56;4503888;31;20069;-70
2021/12/08 12:02:55;;;;;;;;;;;;;;;15.53;35.55;99726.53;4453045;32;20024;-70
2021/12/08 12:05:33;;;;;;;;;;;;;;;16.63;33.17;99728.69;4453190;32;19992;-70
2021/12/08 12:08:00;;;;;;;;;;;;;;;16.19;34.26;99730.78;4453085;32;19992;-70
2021/12/08 12:10:30;;;;;;;;;;;;;;;16.17;35.37;99725.50;4453274;32;20422;-70
2021/12/08 12:12:59;;;;;;;;;;;;;;;15.73;35.27;99711.56;4454352;32;20757;-70
2021/12/08 12:15:27;;;;;;;;;;;;;;;16.52;34.88;99716.84;4452605;32;19980;-70
2021/12/08 12:17:55;;;;;;;;;;;;;;;16.53;35.33;99713.25;4447195;32;20001;-70
2021/12/08 12:20:23;;;;;;;;;;;;;;;16.53;34.51;99703.47;4442408;32;20008;-70
2021/12/08 12:23:05;;;;;;;;;;;;;;;17.21;34.16;99706.44;4441843;32;20424;-70
2021/12/08 12:25:56;;;;;;;;;;;;;;;17.52;33.84;99707.53;4444764;32;20047;-70
2021/12/08 12:28:29;;;;;;;;;;;;;;;17.82;32.16;99695.31;4424364;32;20034;-70
2021/12/08 12:31:10;;;;;;;;;;;;;;;17.22;32.82;99701.97;4445494;32;20072;-70
2021/12/08 12:33:42;;;;;;;;;;;;;;;16.71;33.35;99697.28;4463957;31;20010;-70
2021/12/08 12:36:20;;;;;;;;;;;;;;;17.07;33.40;99709.78;4495466;31;19979;-70
2021/12/08 12:38:49;;;;;;;;;;;;;;;16.99;32.72;99708.41;4495022;31;20027;-70
2021/12/08 12:41:28;;;;;;;;;;;;;;;16.71;32.63;99707.03;4497991;31;19991;-70
2021/12/08 12:44:13;;;;;;;;;;;;;;;16.81;34.69;99700.38;4495712;31;19991;-70
2021/12/08 12:47:00;;;;;;;;;;;;;;;16.36;35.35;99698.06;4479921;31;19999;-70
2021/12/08 12:49:27;;;;;;;;;;;;;;;16.85;34.45;99693.97;4494886;31;19991;-71
2021/12/08 12:51:59;;;;;;;;;;;;;;;16.47;33.31;99690.47;4494553;31;19994;-70
2021/12/08 12:54:27;;;;;;;;;;;;;;;16.36;34.22;99688.31;4493325;31;20377;-70
2021/12/08 12:56:55;;;;;;;;;;;;;;;16.77;33.71;99685.50;4495093;31;20865;-71
2021/12/08 12:59:27;;;;;;;;;;;;;;;17.11;33.02;99681.19;4479130;31;20040;-70
2021/12/08 13:02:06;;;;;;;;;;;;;;;17.12;32.94;99681.09;4491200;31;19991;-71
2021/12/08 13:04:48;;;;;;;;;;;;;;;17.22;32.22;99684.19;4493146;31;20045;-71
2021/12/08 13:07:16;;;;;;;;;;;;;;;16.90;32.78;99677.81;4494204;31;19976;-71
2021/12/08 13:09:47;;;;;;;;;;;;;;;17.22;32.68;99676.19;4493065;31;20461;-71
2021/12/08 13:12:20;;;;;;;;;;;;;;;17.13;33.28;99676.66;4492900;31;20417;-70
2021/12/08 13:15:05;;;;;;;;;;;;;;;17.41;32.92;99676.97;4494130;31;20402;-71
2021/12/08 13:17:33;;;;;;;;;;;;;;;17.51;32.17;99682.69;4493699;31;19990;-71
2021/12/08 13:20:05;;;;;;;;;;;;;;;16.70;32.84;99684.91;4493840;31;20373;-72
2021/12/08 13:22:54;;;;;;;;;;;;;;;17.19;33.86;99687.00;4493580;31;19995;-71
2021/12/08 13:25:27;;;;;;;;;;;;;;;17.78;33.04;99691.09;4494592;31;20449;-71
2021/12/08 13:27:56;;;;;;;;;;;;;;;17.40;33.51;99690.38;4494239;31;19975;-71
2021/12/08 13:30:26;;;;;;;;;;;;;;;17.60;32.83;99686.69;4490954;31;20330;-72
2021/12/08 13:33:07;;;;;;;;;;;;;;;17.36;32.72;99684.34;4492762;31;20023;-72
2021/12/08 13:35:37;;;;;;;;;;;;;;;17.45;32.80;99688.31;4493991;31;20488;-69
2021/12/08 13:38:05;;;;;;;;;;;;;;;17.21;33.01;99679.81;4492684;31;19993;-69
2021/12/08 13:40:41;;;;;;;;;;;;;;;16.70;33.52;99692.03;4492875;31;20032;-69
2021/12/08 13:43:09;;;;;;;;;;;;;;;16.77;34.10;99685.50;4493422;31;19987;-71
2021/12/08 13:45:40;;;;;;;;;;;;;;;16.56;34.21;99687.38;4493424;31;20054;-71
2021/12/08 13:48:10;;;;;;;;;;;;;;;16.30;34.46;99685.09;4493926;31;19979;-70
2021/12/08 13:50:38;;;;;;;;;;;;;;;16.30;34.56;99688.59;4493007;31;19994;-70
2021/12/08 13:53:08;;;;;;;;;;;;;;;16.14;35.03;99690.22;4492885;31;20047;-70
2021/12/08 13:55:38;;;;;;;;;;;;;;;15.98;34.48;99692.75;4493066;31;19987;-70
2021/12/08 13:58:15;;;;;;;;;;;;;;;15.75;35.39;99689.28;4492751;31;20028;-70
2021/12/08 14:00:47;;;;;;;;;;;;;;;15.05;36.27;99679.91;4492493;31;19995;-70